sensor_id;sensor_type;location;lat;lon;timestamp;pressure;altitude;pressure_sealevel;temperature;humidity
72024;BME280;59889;50.700;5.440;2023-07-02T00:01:54;99352.60;;;27.92;29.30
72024;BME280;59889;50.700;5.440;2023-07-02T00:04:20;99351.29;;;27.86;29.36
72024;BME280;59889;50.700;5.440;2023-07-02T00:06:47;99345.80;;;27.96;29.52
72024;BME280;59889;50.700;5.440;2023-07-02T00:09:13;99343.45;;;27.72;29.50
72024;BME280;59889;50.700;5.440;2023-07-02T00:11:39;99346.36;;;27.82;29.40
72024;BME280;59889;50.700;5.440;2023-07-02T00:14:04;99344.23;;;27.73;29.49
72024;BME280;59889;50.700;5.440;2023-07-02T00:16:30;99342.72;;;27.70;29.52
72024;BME280;59889;50.700;5.440;2023-07-02T00:18:55;99340.91;;;27.78;29.43
72024;BME280;59889;50.700;5.440;2023-07-02T00:21:22;99341.06;;;27.70;29.52
72024;BME280;59889;50.700;5.440;2023-07-02T00:23:47;99340.37;;;27.72;29.50
72024;BME280;59889;50.700;5.440;2023-07-02T00:26:13;99339.39;;;27.78;29.42
72024;BME280;59889;50.700;5.440;2023-07-02T00:28:39;99341.75;;;28.08;29.39
72024;BME280;59889;50.700;5.440;2023-07-02T00:31:05;99341.62;;;27.78;29.43
72024;BME280;59889;50.700;5.440;2023-07-02T00:33:32;99342.72;;;27.84;29.37
72024;BME280;59889;50.700;5.440;2023-07-02T00:35:57;99342.47;;;27.81;29.38
72024;BME280;59889;50.700;5.440;2023-07-02T00:38:22;99337.95;;;27.87;29.33
72024;BME280;59889;50.700;5.440;2023-07-02T00:40:48;99345.10;;;28.11;29.32
72024;BME280;59889;50.700;5.440;2023-07-02T00:43:14;99346.65;;;27.78;29.43
72024;BME280;59889;50.700;5.440;2023-07-02T00:45:40;99343.31;;;27.82;29.39
72024;BME280;59889;50.700;5.440;2023-07-02T00:48:06;99345.66;;;27.76;29.46
72024;BME280;59889;50.700;5.440;2023-07-02T00:50:32;99341.65;;;27.84;29.37
72024;BME280;59889;50.700;5.440;2023-07-02T00:52:57;99344.61;;;27.82;29.37
72024;BME280;59889;50.700;5.440;2023-07-02T00:55:24;99343.57;;;27.90;29.29
72024;BME280;59889;50.700;5.440;2023-07-02T00:57:49;99345.91;;;27.86;29.35
72024;BME280;59889;50.700;5.440;2023-07-02T01:00:15;99341.48;;;27.75;29.44
72024;BME280;59889;50.700;5.440;2023-07-02T01:02:41;99340.15;;;28.12;29.32
72024;BME280;59889;50.700;5.440;2023-07-02T01:05:07;99340.47;;;27.85;29.36
72024;BME280;59889;50.700;5.440;2023-07-02T01:07:32;99340.33;;;27.66;29.55
72024;BME280;59889;50.700;5.440;2023-07-02T01:09:58;99343.24;;;27.80;29.40
72024;BME280;59889;50.700;5.440;2023-07-02T01:12:24;99345.05;;;27.43;29.53
72024;BME280;59889;50.700;5.440;2023-07-02T01:14:52;99342.82;;;27.89;29.28
72024;BME280;59889;50.700;5.440;2023-07-02T01:17:16;99345.28;;;27.85;29.34
72024;BME280;59889;50.700;5.440;2023-07-02T01:19:44;99350.75;;;27.78;29.42
72024;BME280;59889;50.700;5.440;2023-07-02T01:22:08;99345.82;;;27.78;29.42
72024;BME280;59889;50.700;5.440;2023-07-02T01:24:34;99347.65;;;27.72;29.47
72024;BME280;59889;50.700;5.440;2023-07-02T01:26:59;99351.44;;;27.72;29.48
72024;BME280;59889;50.700;5.440;2023-07-02T01:29:25;99350.18;;;27.76;29.44
72024;BME280;59889;50.700;5.440;2023-07-02T01:31:51;99351.67;;;27.71;29.46
72024;BME280;59889;50.700;5.440;2023-07-02T01:34:17;99351.20;;;27.74;29.45
72024;BME280;59889;50.700;5.440;2023-07-02T01:36:43;99351.41;;;28.14;29.27
72024;BME280;59889;50.700;5.440;2023-07-02T01:39:09;99349.58;;;27.64;29.54
72024;BME280;59889;50.700;5.440;2023-07-02T01:41:37;99350.61;;;27.79;29.39
72024;BME280;59889;50.700;5.440;2023-07-02T01:44:00;99352.51;;;27.87;29.55
72024;BME280;59889;50.700;5.440;2023-07-02T01:46:26;99358.98;;;27.76;29.40
72024;BME280;59889;50.700;5.440;2023-07-02T01:48:52;99350.60;;;27.84;29.33
72024;BME280;59889;50.700;5.440;2023-07-02T01:51:18;99361.64;;;27.49;29.45
72024;BME280;59889;50.700;5.440;2023-07-02T01:53:43;99361.07;;;27.64;29.54
72024;BME280;59889;50.700;5.440;2023-07-02T01:56:09;99366.40;;;27.86;29.57
72024;BME280;59889;50.700;5.440;2023-07-02T01:58:35;99361.67;;;27.95;29.46
72024;BME280;59889;50.700;5.440;2023-07-02T02:01:01;99358.79;;;27.68;29.49
72024;BME280;59889;50.700;5.440;2023-07-02T02:03:27;99356.96;;;27.99;29.41
72024;BME280;59889;50.700;5.440;2023-07-02T02:05:53;99359.50;;;27.58;29.61
72024;BME280;59889;50.700;5.440;2023-07-02T02:08:19;99363.46;;;27.85;29.31
72024;BME280;59889;50.700;5.440;2023-07-02T02:10:44;99363.12;;;27.64;29.53
72024;BME280;59889;50.700;5.440;2023-07-02T02:13:10;99364.74;;;27.83;29.32
72024;BME280;59889;50.700;5.440;2023-07-02T02:15:36;99360.78;;;27.74;29.41
72024;BME280;59889;50.700;5.440;2023-07-02T02:18:02;99360.90;;;27.75;29.40
72024;BME280;59889;50.700;5.440;2023-07-02T02:20:28;99364.95;;;27.83;29.30
72024;BME280;59889;50.700;5.440;2023-07-02T02:22:54;99365.69;;;27.62;29.54
72024;BME280;59889;50.700;5.440;2023-07-02T02:25:20;99367.59;;;27.69;29.45
72024;BME280;59889;50.700;5.440;2023-07-02T02:27:45;99372.35;;;27.66;29.49
72024;BME280;59889;50.700;5.440;2023-07-02T02:30:11;99373.04;;;27.71;29.44
72024;BME280;59889;50.700;5.440;2023-07-02T02:32:37;99372.95;;;27.69;29.44
72024;BME280;59889;50.700;5.440;2023-07-02T02:35:03;99377.83;;;27.77;29.36
72024;BME280;59889;50.700;5.440;2023-07-02T02:37:28;99377.10;;;27.78;29.35
72024;BME280;59889;50.700;5.440;2023-07-02T02:39:54;99381.80;;;27.78;29.60
72024;BME280;59889;50.700;5.440;2023-07-02T02:42:20;99378.42;;;27.75;29.37
72024;BME280;59889;50.700;5.440;2023-07-02T02:44:46;99379.84;;;27.79;29.35
72024;BME280;59889;50.700;5.440;2023-07-02T02:47:12;99382.96;;;27.69;29.43
72024;BME280;59889;50.700;5.440;2023-07-02T02:49:38;99379.56;;;27.72;29.39
72024;BME280;59889;50.700;5.440;2023-07-02T02:52:04;99381.15;;;27.60;29.51
72024;BME280;59889;50.700;5.440;2023-07-02T02:54:29;99376.85;;;27.75;29.36
72024;BME280;59889;50.700;5.440;2023-07-02T02:56:55;99380.56;;;27.74;29.37
72024;BME280;59889;50.700;5.440;2023-07-02T02:59:21;99382.14;;;27.62;29.50
72024;BME280;59889;50.700;5.440;2023-07-02T03:01:47;99384.69;;;27.67;29.42
72024;BME280;59889;50.700;5.440;2023-07-02T03:04:13;99386.84;;;27.89;29.45
72024;BME280;59889;50.700;5.440;2023-07-02T03:06:39;99384.80;;;27.71;29.64
72024;BME280;59889;50.700;5.440;2023-07-02T03:09:04;99391.00;;;27.73;29.38
72024;BME280;59889;50.700;5.440;2023-07-02T03:11:30;99390.35;;;27.59;29.52
72024;BME280;59889;50.700;5.440;2023-07-02T03:13:56;99389.36;;;27.56;29.55
72024;BME280;59889;50.700;5.440;2023-07-02T03:16:22;99387.26;;;27.46;29.64
72024;BME280;59889;50.700;5.440;2023-07-02T03:18:48;99388.35;;;27.46;29.64
72024;BME280;59889;50.700;5.440;2023-07-02T03:21:14;99392.08;;;27.52;29.58
72024;BME280;59889;50.700;5.440;2023-07-02T03:23:39;99389.99;;;27.52;29.59
72024;BME280;59889;50.700;5.440;2023-07-02T03:26:05;99391.31;;;27.33;29.79
72024;BME280;59889;50.700;5.440;2023-07-02T03:28:31;99393.67;;;27.39;29.73
72024;BME280;59889;50.700;5.440;2023-07-02T03:30:57;99398.17;;;27.58;29.79
72024;BME280;59889;50.700;5.440;2023-07-02T03:33:23;99399.09;;;27.33;29.79
72024;BME280;59889;50.700;5.440;2023-07-02T03:35:49;99402.04;;;27.66;29.70
72024;BME280;59889;50.700;5.440;2023-07-02T03:38:14;99407.08;;;27.79;29.55
72024;BME280;59889;50.700;5.440;2023-07-02T03:40:40;99410.13;;;27.44;29.64
72024;BME280;59889;50.700;5.440;2023-07-02T03:43:06;99412.15;;;27.54;29.55
72024;BME280;59889;50.700;5.440;2023-07-02T03:45:32;99412.23;;;27.61;29.49
72024;BME280;59889;50.700;5.440;2023-07-02T03:47:58;99413.44;;;27.73;29.60
72024;BME280;59889;50.700;5.440;2023-07-02T03:50:23;99415.83;;;27.37;29.74
72024;BME280;59889;50.700;5.440;2023-07-02T03:52:49;99416.32;;;27.35;29.76
72024;BME280;59889;50.700;5.440;2023-07-02T03:55:15;99424.25;;;27.53;29.55
72024;BME280;59889;50.700;5.440;2023-07-02T03:57:41;99427.70;;;27.58;29.51
72024;BME280;59889;50.700;5.440;2023-07-02T04:00:08;99430.56;;;27.56;29.50
72024;BME280;59889;50.700;5.440;2023-07-02T04:02:33;99431.83;;;27.38;29.70
72024;BME280;59889;50.700;5.440;2023-07-02T04:04:58;99436.57;;;27.37;29.72
72024;BME280;59889;50.700;5.440;2023-07-02T04:07:24;99439.20;;;27.42;29.68
72024;BME280;59889;50.700;5.440;2023-07-02T04:09:50;99438.58;;;27.29;29.79
72024;BME280;59889;50.700;5.440;2023-07-02T04:12:16;99440.48;;;27.35;29.73
72024;BME280;59889;50.700;5.440;2023-07-02T04:14:42;99440.56;;;27.41;29.66
72024;BME280;59889;50.700;5.440;2023-07-02T04:17:08;99441.39;;;27.69;29.62
72024;BME280;59889;50.700;5.440;2023-07-02T04:19:33;99443.52;;;27.59;29.72
72024;BME280;59889;50.700;5.440;2023-07-02T04:21:59;99448.44;;;27.42;29.66
72024;BME280;59889;50.700;5.440;2023-07-02T04:24:25;99448.67;;;27.46;29.60
72024;BME280;59889;50.700;5.440;2023-07-02T04:26:51;99449.85;;;27.17;29.66
72024;BME280;59889;50.700;5.440;2023-07-02T04:29:17;99450.55;;;27.44;29.60
72024;BME280;59889;50.700;5.440;2023-07-02T04:31:43;99454.42;;;27.29;29.51
72024;BME280;59889;50.700;5.440;2023-07-02T04:34:09;99455.16;;;27.51;29.55
72024;BME280;59889;50.700;5.440;2023-07-02T04:36:34;99457.66;;;27.67;29.61
72024;BME280;59889;50.700;5.440;2023-07-02T04:39:00;99460.10;;;27.68;29.36
72024;BME280;59889;50.700;5.440;2023-07-02T04:41:26;99457.73;;;27.39;29.65
72024;BME280;59889;50.700;5.440;2023-07-02T04:43:52;99462.07;;;27.81;29.47
72024;BME280;59889;50.700;5.440;2023-07-02T04:46:18;99464.60;;;27.28;29.76
72024;BME280;59889;50.700;5.440;2023-07-02T04:48:44;99467.74;;;27.60;29.43
72024;BME280;59889;50.700;5.440;2023-07-02T04:51:09;99468.81;;;27.14;29.92
72024;BME280;59889;50.700;5.440;2023-07-02T04:53:35;99472.31;;;27.57;29.63
72024;BME280;59889;50.700;5.440;2023-07-02T04:56:01;99474.86;;;27.19;29.95
72024;BME280;59889;50.700;5.440;2023-07-02T04:58:26;99475.38;;;26.86;29.91
72024;BME280;59889;50.700;5.440;2023-07-02T05:00:51;99476.63;;;26.88;30.14
72024;BME280;59889;50.700;5.440;2023-07-02T05:03:16;99474.75;;;27.00;29.91
72024;BME280;59889;50.700;5.440;2023-07-02T05:05:41;99477.94;;;26.89;29.90
72024;BME280;59889;50.700;5.440;2023-07-02T05:08:07;99474.83;;;26.85;29.87
72024;BME280;59889;50.700;5.440;2023-07-02T05:10:32;99475.42;;;26.72;29.94
72024;BME280;59889;50.700;5.440;2023-07-02T05:12:58;99478.32;;;26.56;29.77
72024;BME280;59889;50.700;5.440;2023-07-02T05:15:23;99479.44;;;26.48;29.78
72024;BME280;59889;50.700;5.440;2023-07-02T05:17:49;99481.08;;;26.64;29.83
72024;BME280;59889;50.700;5.440;2023-07-02T05:20:15;99485.02;;;26.67;29.80
72024;BME280;59889;50.700;5.440;2023-07-02T05:22:40;99485.38;;;26.41;30.03
72024;BME280;59889;50.700;5.440;2023-07-02T05:25:06;99489.09;;;26.75;29.63
72024;BME280;59889;50.700;5.440;2023-07-02T05:27:31;99489.85;;;26.59;29.75
72024;BME280;59889;50.700;5.440;2023-07-02T05:29:56;99491.09;;;26.65;29.68
72024;BME280;59889;50.700;5.440;2023-07-02T05:32:22;99493.52;;;26.64;29.67
72024;BME280;59889;50.700;5.440;2023-07-02T05:34:47;99497.57;;;26.45;29.83
72024;BME280;59889;50.700;5.440;2023-07-02T05:37:12;99497.53;;;26.35;29.94
72024;BME280;59889;50.700;5.440;2023-07-02T05:39:37;99501.32;;;26.82;29.74
72024;BME280;59889;50.700;5.440;2023-07-02T05:42:04;99503.41;;;26.64;29.66
72024;BME280;59889;50.700;5.440;2023-07-02T05:44:28;99503.32;;;26.50;29.76
72024;BME280;59889;50.700;5.440;2023-07-02T05:46:54;99506.90;;;26.58;29.67
72024;BME280;59889;50.700;5.440;2023-07-02T05:49:19;99507.63;;;26.69;29.82
72024;BME280;59889;50.700;5.440;2023-07-02T05:51:44;99506.59;;;26.41;29.88
72024;BME280;59889;50.700;5.440;2023-07-02T05:54:10;99511.46;;;26.38;29.91
72024;BME280;59889;50.700;5.440;2023-07-02T05:56:35;99511.30;;;26.38;29.87
72024;BME280;59889;50.700;5.440;2023-07-02T05:59:01;99513.20;;;26.36;29.88
72024;BME280;59889;50.700;5.440;2023-07-02T06:01:26;99514.19;;;26.34;29.89
72024;BME280;59889;50.700;5.440;2023-07-02T06:03:52;99514.75;;;26.34;29.91
72024;BME280;59889;50.700;5.440;2023-07-02T06:06:17;99519.93;;;26.20;30.08
72024;BME280;59889;50.700;5.440;2023-07-02T06:08:42;99522.42;;;26.08;29.96
72024;BME280;59889;50.700;5.440;2023-07-02T06:11:08;99520.00;;;26.43;29.84
72024;BME280;59889;50.700;5.440;2023-07-02T06:13:33;99519.99;;;26.58;29.68
72024;BME280;59889;50.700;5.440;2023-07-02T06:15:58;99518.80;;;26.58;29.73
72024;BME280;59889;50.700;5.440;2023-07-02T06:18:24;99524.37;;;26.76;29.58
72024;BME280;59889;50.700;5.440;2023-07-02T06:20:50;99527.14;;;26.85;29.56
72024;BME280;59889;50.700;5.440;2023-07-02T06:23:14;99534.40;;;26.68;29.85
72024;BME280;59889;50.700;5.440;2023-07-02T06:25:39;99528.81;;;26.56;30.08
72024;BME280;59889;50.700;5.440;2023-07-02T06:28:04;99535.81;;;26.12;30.30
72024;BME280;59889;50.700;5.440;2023-07-02T06:30:30;99536.11;;;26.07;30.30
72024;BME280;59889;50.700;5.440;2023-07-02T06:32:55;99538.21;;;26.19;30.21
72024;BME280;59889;50.700;5.440;2023-07-02T06:35:21;99539.04;;;26.28;30.19
72024;BME280;59889;50.700;5.440;2023-07-02T06:37:46;99540.56;;;25.94;30.52
72024;BME280;59889;50.700;5.440;2023-07-02T06:40:12;99543.08;;;26.33;30.33
72024;BME280;59889;50.700;5.440;2023-07-02T06:42:36;99551.22;;;26.24;30.11
72024;BME280;59889;50.700;5.440;2023-07-02T06:45:02;99555.77;;;26.49;30.05
72024;BME280;59889;50.700;5.440;2023-07-02T06:47:27;99554.01;;;26.10;30.15
72024;BME280;59889;50.700;5.440;2023-07-02T06:49:53;99556.86;;;26.07;30.13
72024;BME280;59889;50.700;5.440;2023-07-02T06:52:18;99563.66;;;26.09;30.15
72024;BME280;59889;50.700;5.440;2023-07-02T06:54:43;99569.15;;;26.24;30.06
72024;BME280;59889;50.700;5.440;2023-07-02T06:57:08;99567.46;;;26.17;30.33
72024;BME280;59889;50.700;5.440;2023-07-02T06:59:33;99571.87;;;25.84;30.44
72024;BME280;59889;50.700;5.440;2023-07-02T07:01:59;99572.87;;;26.15;30.35
72024;BME280;59889;50.700;5.440;2023-07-02T07:04:24;99574.85;;;26.26;30.20
72024;BME280;59889;50.700;5.440;2023-07-02T07:06:50;99576.87;;;26.15;30.09
72024;BME280;59889;50.700;5.440;2023-07-02T07:09:15;99582.73;;;26.10;30.19
72024;BME280;59889;50.700;5.440;2023-07-02T07:11:41;99584.31;;;26.01;30.36
72024;BME280;59889;50.700;5.440;2023-07-02T07:14:06;99584.08;;;26.29;30.27
72024;BME280;59889;50.700;5.440;2023-07-02T07:16:31;99586.62;;;26.30;30.21
72024;BME280;59889;50.700;5.440;2023-07-02T07:18:57;99592.27;;;24.75;31.91
72024;BME280;59889;50.700;5.440;2023-07-02T07:21:22;99594.74;;;25.46;31.23
72024;BME280;59889;50.700;5.440;2023-07-02T07:23:47;99592.20;;;25.82;30.73
72024;BME280;59889;50.700;5.440;2023-07-02T07:26:13;99588.75;;;26.34;30.44
72024;BME280;59889;50.700;5.440;2023-07-02T07:28:38;99586.41;;;26.18;30.66
72024;BME280;59889;50.700;5.440;2023-07-02T07:31:04;99589.82;;;25.92;30.91
72024;BME280;59889;50.700;5.440;2023-07-02T07:33:30;99591.55;;;25.42;31.17
72024;BME280;59889;50.700;5.440;2023-07-02T07:35:55;99597.29;;;25.67;30.81
72024;BME280;59889;50.700;5.440;2023-07-02T07:38:20;99593.59;;;26.15;30.78
72024;BME280;59889;50.700;5.440;2023-07-02T07:40:46;99597.26;;;25.82;30.90
72024;BME280;59889;50.700;5.440;2023-07-02T07:43:11;99598.11;;;25.28;31.49
72024;BME280;59889;50.700;5.440;2023-07-02T07:45:37;99601.64;;;25.67;30.95
72024;BME280;59889;50.700;5.440;2023-07-02T07:48:03;99602.57;;;25.83;30.74
72024;BME280;59889;50.700;5.440;2023-07-02T07:50:28;99601.10;;;25.91;30.47
72024;BME280;59889;50.700;5.440;2023-07-02T07:52:53;99600.15;;;25.91;30.22
72024;BME280;59889;50.700;5.440;2023-07-02T07:55:19;99602.12;;;25.85;30.35
72024;BME280;59889;50.700;5.440;2023-07-02T07:57:45;99608.18;;;26.08;30.89
72024;BME280;59889;50.700;5.440;2023-07-02T08:00:11;99607.54;;;26.05;30.67
72024;BME280;59889;50.700;5.440;2023-07-02T08:02:35;99605.05;;;25.86;30.72
72024;BME280;59889;50.700;5.440;2023-07-02T08:05:01;99603.57;;;26.16;30.30
72024;BME280;59889;50.700;5.440;2023-07-02T08:07:27;99608.24;;;25.64;30.18
72024;BME280;59889;50.700;5.440;2023-07-02T08:09:52;99607.66;;;26.01;30.08
72024;BME280;59889;50.700;5.440;2023-07-02T08:12:18;99611.86;;;25.70;30.15
72024;BME280;59889;50.700;5.440;2023-07-02T08:14:44;99615.34;;;25.98;30.44
72024;BME280;59889;50.700;5.440;2023-07-02T08:17:10;99619.13;;;25.72;31.15
72024;BME280;59889;50.700;5.440;2023-07-02T08:19:35;99615.53;;;25.98;30.83
72024;BME280;59889;50.700;5.440;2023-07-02T08:22:01;99618.92;;;25.87;30.91
72024;BME280;59889;50.700;5.440;2023-07-02T08:24:27;99629.61;;;25.76;31.08
72024;BME280;59889;50.700;5.440;2023-07-02T08:26:52;99630.65;;;25.40;31.48
72024;BME280;59889;50.700;5.440;2023-07-02T08:29:18;99632.04;;;25.13;31.74
72024;BME280;59889;50.700;5.440;2023-07-02T08:31:43;99635.79;;;25.57;31.29
72024;BME280;59889;50.700;5.440;2023-07-02T08:34:09;99640.15;;;25.79;30.97
72024;BME280;59889;50.700;5.440;2023-07-02T08:36:34;99641.28;;;25.51;31.57
72024;BME280;59889;50.700;5.440;2023-07-02T08:38:59;99637.59;;;25.24;31.67
72024;BME280;59889;50.700;5.440;2023-07-02T08:41:25;99647.09;;;25.50;31.47
72024;BME280;59889;50.700;5.440;2023-07-02T08:43:50;99642.94;;;25.42;31.58
72024;BME280;59889;50.700;5.440;2023-07-02T08:46:15;99644.38;;;25.36;31.09
72024;BME280;59889;50.700;5.440;2023-07-02T08:48:41;99649.33;;;25.39;30.95
72024;BME280;59889;50.700;5.440;2023-07-02T08:51:06;99647.82;;;25.67;30.93
72024;BME280;59889;50.700;5.440;2023-07-02T08:53:32;99646.43;;;25.26;31.39
72024;BME280;59889;50.700;5.440;2023-07-02T08:55:57;99645.77;;;25.30;31.29
72024;BME280;59889;50.700;5.440;2023-07-02T08:58:23;99642.78;;;25.26;31.39
72024;BME280;59889;50.700;5.440;2023-07-02T09:01:04;99644.80;;;25.39;31.18
72024;BME280;59889;50.700;5.440;2023-07-02T09:03:15;99637.04;;;25.01;31.60
72024;BME280;59889;50.700;5.440;2023-07-02T09:05:48;99636.08;;;25.03;31.72
72024;BME280;59889;50.700;5.440;2023-07-02T09:08:05;99637.17;;;25.58;31.10
72024;BME280;59889;50.700;5.440;2023-07-02T09:10:31;99633.82;;;25.42;31.63
72024;BME280;59889;50.700;5.440;2023-07-02T09:13:04;99636.04;;;25.25;31.46
72024;BME280;59889;50.700;5.440;2023-07-02T09:15:22;99637.75;;;25.43;31.13
72024;BME280;59889;50.700;5.440;2023-07-02T09:17:47;99639.20;;;25.39;30.92
72024;BME280;59889;50.700;5.440;2023-07-02T09:20:13;99639.08;;;24.87;31.00
72024;BME280;59889;50.700;5.440;2023-07-02T09:22:40;99639.65;;;25.15;30.57
72024;BME280;59889;50.700;5.440;2023-07-02T09:25:04;99633.08;;;25.39;30.56
72024;BME280;59889;50.700;5.440;2023-07-02T09:27:34;99635.05;;;25.56;30.23
72024;BME280;59889;50.700;5.440;2023-07-02T09:29:54;99637.73;;;25.28;30.56
72024;BME280;59889;50.700;5.440;2023-07-02T09:32:24;99636.48;;;25.78;30.11
72024;BME280;59889;50.700;5.440;2023-07-02T09:34:45;99633.42;;;25.66;30.37
72024;BME280;59889;50.700;5.440;2023-07-02T09:37:10;99634.75;;;25.42;30.48
72024;BME280;59889;50.700;5.440;2023-07-02T09:39:36;99630.85;;;25.36;30.42
72024;BME280;59889;50.700;5.440;2023-07-02T09:42:05;99632.40;;;25.50;30.48
72024;BME280;59889;50.700;5.440;2023-07-02T09:44:28;99632.38;;;25.49;30.39
72024;BME280;59889;50.700;5.440;2023-07-02T09:46:58;99635.44;;;25.15;30.18
72024;BME280;59889;50.700;5.440;2023-07-02T09:49:20;99639.27;;;25.45;29.90
72024;BME280;59889;50.700;5.440;2023-07-02T09:51:44;99635.96;;;24.96;29.90
72024;BME280;59889;50.700;5.440;2023-07-02T09:54:10;99637.16;;;25.26;29.49
72024;BME280;59889;50.700;5.440;2023-07-02T09:56:35;99636.47;;;25.34;29.11
72024;BME280;59889;50.700;5.440;2023-07-02T09:59:00;99645.09;;;25.52;28.83
72024;BME280;59889;50.700;5.440;2023-07-02T10:01:25;99642.40;;;25.25;28.79
72024;BME280;59889;50.700;5.440;2023-07-02T10:03:50;99647.15;;;25.29;28.67
72024;BME280;59889;50.700;5.440;2023-07-02T10:06:16;99649.69;;;25.07;28.81
72024;BME280;59889;50.700;5.440;2023-07-02T10:08:52;99644.49;;;25.36;28.50
72024;BME280;59889;50.700;5.440;2023-07-02T10:11:09;99641.46;;;25.09;28.46
72024;BME280;59889;50.700;5.440;2023-07-02T10:13:31;99644.21;;;25.09;28.29
72024;BME280;59889;50.700;5.440;2023-07-02T10:16:01;99645.77;;;25.11;28.11
72024;BME280;59889;50.700;5.440;2023-07-02T10:18:26;99648.80;;;24.97;27.94
72024;BME280;59889;50.700;5.440;2023-07-02T10:20:48;99646.18;;;25.04;28.11
72024;BME280;59889;50.700;5.440;2023-07-02T10:23:13;99646.70;;;25.33;27.92
72024;BME280;59889;50.700;5.440;2023-07-02T10:25:38;99641.62;;;25.03;28.42
72024;BME280;59889;50.700;5.440;2023-07-02T10:28:14;99645.67;;;25.16;28.32
72024;BME280;59889;50.700;5.440;2023-07-02T10:30:32;99640.28;;;25.09;28.58
72024;BME280;59889;50.700;5.440;2023-07-02T10:32:53;99642.41;;;25.02;28.59
72024;BME280;59889;50.700;5.440;2023-07-02T10:35:18;99645.13;;;24.90;28.44
72024;BME280;59889;50.700;5.440;2023-07-02T10:37:44;99646.27;;;25.20;28.48
72024;BME280;59889;50.700;5.440;2023-07-02T10:40:11;99646.99;;;24.63;28.43
72024;BME280;59889;50.700;5.440;2023-07-02T10:42:44;99655.01;;;24.78;28.04
72024;BME280;59889;50.700;5.440;2023-07-02T10:45:00;99653.11;;;24.91;27.73
72024;BME280;59889;50.700;5.440;2023-07-02T10:47:25;99646.41;;;25.15;27.56
72024;BME280;59889;50.700;5.440;2023-07-02T10:49:50;99649.20;;;24.72;28.05
72024;BME280;59889;50.700;5.440;2023-07-02T10:52:15;99645.06;;;25.09;27.79
72024;BME280;59889;50.700;5.440;2023-07-02T10:54:43;99651.51;;;24.76;28.19
72024;BME280;59889;50.700;5.440;2023-07-02T10:57:06;99648.44;;;25.49;27.65
72024;BME280;59889;50.700;5.440;2023-07-02T10:59:32;99647.08;;;25.19;27.44
72024;BME280;59889;50.700;5.440;2023-07-02T11:01:57;99647.51;;;24.88;27.58
72024;BME280;59889;50.700;5.440;2023-07-02T11:04:22;99646.43;;;24.78;28.01
72024;BME280;59889;50.700;5.440;2023-07-02T11:06:48;99645.78;;;25.11;27.50
72024;BME280;59889;50.700;5.440;2023-07-02T11:09:17;99647.64;;;24.92;27.62
72024;BME280;59889;50.700;5.440;2023-07-02T11:11:50;99645.22;;;25.12;27.38
72024;BME280;59889;50.700;5.440;2023-07-02T11:14:04;99645.86;;;25.06;26.97
72024;BME280;59889;50.700;5.440;2023-07-02T11:16:29;99647.88;;;25.22;27.20
72024;BME280;59889;50.700;5.440;2023-07-02T11:21:19;99647.85;;;24.62;27.63
72024;BME280;59889;50.700;5.440;2023-07-02T11:23:45;99647.30;;;25.01;27.24
72024;BME280;59889;50.700;5.440;2023-07-02T11:26:10;99648.24;;;24.84;27.56
72024;BME280;59889;50.700;5.440;2023-07-02T11:28:35;99645.69;;;24.92;27.66
72024;BME280;59889;50.700;5.440;2023-07-02T11:31:01;99648.60;;;24.66;27.70
72024;BME280;59889;50.700;5.440;2023-07-02T11:33:34;99651.43;;;24.57;27.88
72024;BME280;59889;50.700;5.440;2023-07-02T11:35:52;99650.08;;;24.34;28.16
72024;BME280;59889;50.700;5.440;2023-07-02T11:38:17;99648.50;;;24.98;28.11
72024;BME280;59889;50.700;5.440;2023-07-02T11:40:43;99649.92;;;24.70;28.07
72024;BME280;59889;50.700;5.440;2023-07-02T11:43:09;99651.64;;;24.57;28.01
72024;BME280;59889;50.700;5.440;2023-07-02T11:45:34;99657.60;;;24.33;28.55
72024;BME280;59889;50.700;5.440;2023-07-02T11:47:59;99657.19;;;24.58;28.27
72024;BME280;59889;50.700;5.440;2023-07-02T11:50:25;99663.09;;;24.78;27.71
72024;BME280;59889;50.700;5.440;2023-07-02T11:52:51;99659.01;;;24.47;28.11
72024;BME280;59889;50.700;5.440;2023-07-02T11:55:16;99659.61;;;24.18;28.24
72024;BME280;59889;50.700;5.440;2023-07-02T11:57:41;99656.46;;;24.79;28.08
72024;BME280;59889;50.700;5.440;2023-07-02T12:00:07;99660.15;;;24.80;27.68
72024;BME280;59889;50.700;5.440;2023-07-02T12:02:32;99655.17;;;24.47;28.06
72024;BME280;59889;50.700;5.440;2023-07-02T12:04:57;99651.55;;;24.36;28.10
72024;BME280;59889;50.700;5.440;2023-07-02T12:07:23;99654.60;;;25.09;27.91
72024;BME280;59889;50.700;5.440;2023-07-02T12:09:48;99650.06;;;24.63;27.97
72024;BME280;59889;50.700;5.440;2023-07-02T12:12:13;99649.25;;;24.88;27.44
72024;BME280;59889;50.700;5.440;2023-07-02T12:14:39;99650.78;;;25.21;27.50
72024;BME280;59889;50.700;5.440;2023-07-02T12:17:05;99654.82;;;25.50;27.11
72024;BME280;59889;50.700;5.440;2023-07-02T12:19:30;99650.37;;;25.62;27.07
72024;BME280;59889;50.700;5.440;2023-07-02T12:21:55;99651.62;;;25.81;26.97
72024;BME280;59889;50.700;5.440;2023-07-02T12:24:20;99654.29;;;26.13;26.94
72024;BME280;59889;50.700;5.440;2023-07-02T12:26:45;99657.88;;;26.23;26.96
72024;BME280;59889;50.700;5.440;2023-07-02T12:29:11;99657.24;;;26.22;27.01
72024;BME280;59889;50.700;5.440;2023-07-02T12:31:37;99657.59;;;25.86;26.95
72024;BME280;59889;50.700;5.440;2023-07-02T12:34:02;99655.96;;;26.08;27.00
72024;BME280;59889;50.700;5.440;2023-07-02T12:36:27;99659.66;;;26.36;27.01
72024;BME280;59889;50.700;5.440;2023-07-02T12:38:53;99662.81;;;26.14;27.06
72024;BME280;59889;50.700;5.440;2023-07-02T12:41:18;99659.65;;;26.14;27.12
72024;BME280;59889;50.700;5.440;2023-07-02T12:43:44;99661.50;;;26.18;27.06
72024;BME280;59889;50.700;5.440;2023-07-02T12:46:09;99662.05;;;26.16;27.17
72024;BME280;59889;50.700;5.440;2023-07-02T12:48:35;99660.74;;;25.93;27.17
72024;BME280;59889;50.700;5.440;2023-07-02T12:51:00;99659.10;;;26.17;27.21
72024;BME280;59889;50.700;5.440;2023-07-02T12:53:26;99658.67;;;26.41;27.24